Time;durP1;ratioP1;P1;durP2;ratioP2;P2;SDS_P1;SDS_P2;PMS_P1;PMS_P2;Temp;Humidity;BMP_temperature;BMP_pressure;BME280_temperature;BME280_humidity;BME280_pressure;Samples;Min_cycle;Max_cycle;Signal;HPM_P1;HPM_P2
2021/03/10 00:01:50;;;;;;;47.63;26.20;;;;;;;-2.96;60.20;101479.16;1723051;82;21171;-40
2021/03/10 00:04:18;;;;;;;45.73;25.30;;;;;;;-2.97;60.25;101481.33;1699952;81;21158;-45
2021/03/10 00:06:47;;;;;;;41.77;24.93;;;;;;;-2.99;60.39;101478.25;1699458;82;21197;-45
2021/03/10 00:09:15;;;;;;;46.53;25.83;;;;;;;-2.99;60.32;101484.78;1715194;81;21153;-44
2021/03/10 00:11:43;;;;;;;45.80;24.20;;;;;;;-3.05;60.19;101481.63;1740079;81;21166;-40
2021/03/10 00:14:10;;;;;;;43.93;26.23;;;;;;;-3.11;60.17;101478.52;1736914;81;21164;-41
2021/03/10 00:16:38;;;;;;;50.53;28.23;;;;;;;-3.12;60.24;101483.74;1707580;83;21178;-41
2021/03/10 00:19:06;;;;;;;49.53;26.40;;;;;;;-3.16;60.17;101480.63;1709227;82;21198;-39
2021/03/10 00:21:34;;;;;;;43.50;25.10;;;;;;;-3.20;60.17;101478.83;1706929;82;21181;-41
2021/03/10 00:24:02;;;;;;;45.17;24.73;;;;;;;-3.27;60.12;101483.97;1722064;81;21180;-39
2021/03/10 00:26:30;;;;;;;38.27;24.70;;;;;;;-3.35;60.28;101480.39;1745918;81;21149;-39
2021/03/10 00:28:58;;;;;;;44.57;24.43;;;;;;;-3.40;60.36;101478.54;1718433;82;21568;-40
2021/03/10 00:31:25;;;;;;;43.27;23.30;;;;;;;-3.45;60.42;101474.59;1723657;82;21287;-39
2021/03/10 00:33:53;;;;;;;39.70;23.13;;;;;;;-3.49;60.52;101469.73;1713032;82;21557;-40
2021/03/10 00:36:21;;;;;;;46.47;24.77;;;;;;;-3.51;60.55;101471.88;1717449;81;21198;-39
2021/03/10 00:38:49;;;;;;;44.00;23.13;;;;;;;-3.54;60.67;101475.75;1716416;82;21627;-39
2021/03/10 00:41:17;;;;;;;43.80;25.13;;;;;;;-3.58;60.64;101479.15;1718377;82;21216;-41
2021/03/10 00:43:44;;;;;;;37.53;22.20;;;;;;;-3.64;60.62;101479.94;1718258;82;21161;-40
2021/03/10 00:46:12;;;;;;;42.23;22.63;;;;;;;-3.68;60.77;101477.25;1715915;81;21191;-40
2021/03/10 00:48:40;;;;;;;43.43;25.07;;;;;;;-3.71;60.99;101477.66;1719093;82;21160;-40
2021/03/10 00:51:08;;;;;;;34.87;22.50;;;;;;;-3.70;61.20;101480.73;1714462;82;21120;-40
2021/03/10 00:53:35;;;;;;;43.27;22.63;;;;;;;-3.70;61.12;101482.47;1719310;82;21676;-39
2021/03/10 00:56:04;;;;;;;33.27;21.53;;;;;;;-3.69;60.94;101482.91;1714919;81;21668;-39
2021/03/10 00:58:31;;;;;;;33.07;20.20;;;;;;;-3.72;60.72;101491.98;1719228;82;21185;-42
2021/03/10 01:00:59;;;;;;;39.27;22.90;;;;;;;-3.79;60.64;101484.48;1706430;82;21170;-42
2021/03/10 01:03:27;;;;;;;35.70;20.83;;;;;;;-3.81;60.64;101483.58;1733191;81;21184;-41
2021/03/10 01:05:55;;;;;;;38.83;20.43;;;;;;;-3.84;60.61;101480.92;1713430;83;21510;-44
2021/03/10 01:08:23;;;;;;;35.23;19.33;;;;;;;-3.85;60.62;101479.61;1718529;81;21171;-42
2021/03/10 01:10:50;;;;;;;37.10;22.30;;;;;;;-3.86;60.69;101480.45;1722037;81;21137;-40
2021/03/10 01:13:18;;;;;;;36.83;20.53;;;;;;;-3.88;60.64;101476.94;1710733;81;21310;-40
2021/03/10 01:15:45;;;;;;;32.20;18.33;;;;;;;-3.92;60.54;101476.02;1711434;81;21494;-41
2021/03/10 01:18:14;;;;;;;36.47;18.20;;;;;;;-3.97;60.51;101478.98;1708909;83;21229;-40
2021/03/10 01:20:42;;;;;;;32.47;18.80;;;;;;;-4.02;60.34;101471.08;1717720;82;21152;-40
2021/03/10 01:23:09;;;;;;;31.83;19.20;;;;;;;-4.08;60.21;101482.71;1711360;82;21167;-40
2021/03/10 01:25:38;;;;;;;30.87;17.60;;;;;;;-4.15;60.21;101479.11;1725961;82;21161;-39
2021/03/10 01:28:05;;;;;;;30.40;20.13;;;;;;;-4.21;60.35;101479.02;1725483;81;21180;-41
2021/03/10 01:30:33;;;;;;;33.60;18.60;;;;;;;-4.20;60.49;101475.55;1737554;81;21125;-39
2021/03/10 01:33:00;;;;;;;29.53;18.23;;;;;;;-4.17;60.48;101469.52;1740472;81;21461;-41
2021/03/10 01:35:28;;;;;;;29.57;18.40;;;;;;;-4.17;60.54;101480.80;1740478;81;21120;-42
2021/03/10 01:37:56;;;;;;;35.50;19.17;;;;;;;-4.18;60.64;101480.37;1707686;81;21125;-47
2021/03/10 01:40:23;;;;;;;33.10;18.97;;;;;;;-4.17;60.63;101476.03;1716658;82;21209;-47
2021/03/10 01:42:53;;;;;;;30.83;17.20;;;;;;;-4.17;60.45;101479.94;1717589;82;21515;-45
2021/03/10 01:45:21;;;;;;;29.20;17.07;;;;;;;-4.20;60.27;101483.36;1727529;81;21157;-39
2021/03/10 01:47:49;;;;;;;27.23;17.30;;;;;;;-4.24;60.27;101479.37;1739475;81;21157;-41
2021/03/10 01:50:18;;;;;;;31.67;17.97;;;;;;;-4.28;60.17;101484.97;1725944;81;21197;-39
2021/03/10 01:52:46;;;;;;;32.73;18.63;;;;;;;-4.32;60.04;101482.27;1712017;81;21156;-40
2021/03/10 01:55:14;;;;;;;34.63;20.40;;;;;;;-4.36;59.94;101478.71;1717230;82;21165;-40
2021/03/10 01:57:42;;;;;;;31.20;17.70;;;;;;;-4.40;59.91;101484.73;1723665;82;21161;-41
2021/03/10 02:00:11;;;;;;;29.00;18.37;;;;;;;-4.46;59.99;101483.30;1715685;81;21595;-40
2021/03/10 02:02:42;;;;;;;29.77;19.27;;;;;;;-4.48;60.06;101486.33;1717409;82;21163;-40
2021/03/10 02:05:14;;;;;;;28.43;17.23;;;;;;;-4.51;60.16;101487.14;1724674;81;21177;-41
2021/03/10 02:08:09;;;;;;;32.07;18.63;;;;;;;-4.52;60.28;101488.41;1746012;81;21150;-41
2021/03/10 02:11:02;;;;;;;30.23;17.40;;;;;;;-4.50;60.50;101491.92;1737315;81;21204;-40
2021/03/10 02:14:00;;;;;;;34.87;18.47;;;;;;;-4.48;60.55;101488.50;1740756;81;21138;-38
2021/03/10 02:16:55;;;;;;;36.00;19.17;;;;;;;-4.47;60.52;101488.07;1735625;81;21157;-37
2021/03/10 02:19:34;;;;;;;33.97;19.73;;;;;;;-4.46;60.58;101488.51;1740400;81;21945;-37
2021/03/10 02:22:10;;;;;;;34.80;19.93;;;;;;;-4.46;60.39;101488.51;1743558;81;21174;-38
2021/03/10 02:25:04;;;;;;;32.03;17.93;;;;;;;-4.50;60.14;101483.68;1700812;81;21115;-39
2021/03/10 02:27:52;;;;;;;34.70;18.73;;;;;;;-4.54;59.94;101491.40;1701343;83;21225;-38
2021/03/10 02:30:30;;;;;;;32.03;17.87;;;;;;;-4.60;59.87;101486.53;1674953;83;21177;-39
2021/03/10 02:33:16;;;;;;;31.20;18.80;;;;;;;-4.62;59.90;101487.34;1722359;81;21145;-37
2021/03/10 02:35:56;;;;;;;34.97;20.40;;;;;;;-4.66;59.99;101485.13;1743899;81;21130;-39
2021/03/10 02:38:24;;;;;;;34.47;19.97;;;;;;;-4.68;59.81;101484.64;1741686;81;21165;-38
2021/03/10 02:40:53;;;;;;;31.70;18.43;;;;;;;-4.71;59.82;101485.45;1723359;81;21161;-38
2021/03/10 02:43:21;;;;;;;32.47;19.50;;;;;;;-4.71;59.85;101490.66;1724505;81;21212;-41
2021/03/10 02:45:53;;;;;;;29.03;16.37;;;;;;;-4.70;59.88;101485.02;1715159;82;21161;-38
2021/03/10 02:48:22;;;;;;;33.87;17.27;;;;;;;-4.72;59.79;101484.11;1717416;82;21712;-38
2021/03/10 02:50:50;;;;;;;33.03;17.90;;;;;;;-4.77;59.82;101487.91;1720569;82;21165;-38
2021/03/10 02:53:17;;;;;;;31.83;17.80;;;;;;;-4.81;59.83;101483.52;1696329;82;21148;-38
2021/03/10 02:55:45;;;;;;;32.47;17.57;;;;;;;-4.85;59.79;101486.89;1710992;82;21155;-38
2021/03/10 02:58:13;;;;;;;30.83;18.37;;;;;;;-4.91;59.84;101487.66;1715349;82;21168;-37
2021/03/10 03:00:41;;;;;;;32.03;18.93;;;;;;;-4.94;59.94;101484.09;1709923;82;21168;-38
2021/03/10 03:03:08;;;;;;;34.20;17.53;;;;;;;-4.97;60.10;101483.60;1713725;82;21181;-38
2021/03/10 03:05:45;;;;;;;31.30;18.97;;;;;;;-4.95;60.14;101488.85;1730469;81;21154;-41
2021/03/10 03:08:21;;;;;;;32.40;18.60;;;;;;;-5.00;60.17;101480.95;1720868;81;21767;-38
2021/03/10 03:10:49;;;;;;;26.90;16.83;;;;;;;-5.00;60.26;101487.45;1720878;82;21158;-39
2021/03/10 03:13:16;;;;;;;33.90;18.37;;;;;;;-5.02;60.25;101484.80;1704294;83;21173;-39
2021/03/10 03:15:47;;;;;;;33.87;19.60;;;;;;;-5.01;60.28;101487.01;1710566;82;21177;-39
2021/03/10 03:18:15;;;;;;;33.23;19.95;;;;;;;-5.03;60.24;101485.66;1710937;83;21213;-38
2021/03/10 03:20:42;;;;;;;40.13;18.87;;;;;;;-5.05;60.18;101485.17;1699146;82;21160;-39
2021/03/10 03:23:10;;;;;;;29.90;17.37;;;;;;;-5.09;60.19;101487.24;1706528;83;21168;-38
2021/03/10 03:25:39;;;;;;;33.27;17.97;;;;;;;-5.15;60.10;101488.00;1703767;82;21632;-39
2021/03/10 03:28:11;;;;;;;33.63;18.50;;;;;;;-5.21;60.18;101490.48;1719160;81;21180;-40
2021/03/10 03:30:39;;;;;;;29.40;17.13;;;;;;;-5.26;60.24;101495.58;1709810;83;21146;-39
2021/03/10 03:33:16;;;;;;;32.13;19.10;;;;;;;-5.29;60.23;101493.31;1699890;82;21214;-40
2021/03/10 03:35:45;;;;;;;32.30;17.17;;;;;;;-5.31;60.37;101497.20;1734556;81;21192;-42
2021/03/10 03:38:13;;;;;;;28.60;17.53;;;;;;;-5.31;60.66;101490.70;1721135;81;21157;-42
2021/03/10 03:40:40;;;;;;;55.87;32.80;;;;;;;-5.28;60.83;101496.39;1721234;81;21125;-42
2021/03/10 03:43:10;;;;;;;47.93;27.73;;;;;;;-5.26;60.79;101491.67;1738481;81;21275;-44
2021/03/10 03:45:39;;;;;;;38.00;22.30;;;;;;;-5.27;60.69;101494.23;1747258;81;21160;-40
2021/03/10 03:48:07;;;;;;;31.47;18.63;;;;;;;-5.30;60.77;101490.27;1742422;81;21126;-39
2021/03/10 03:50:37;;;;;;;29.65;17.27;;;;;;;-5.30;60.85;101495.04;1720554;81;21565;-38
2021/03/10 03:53:05;;;;;;;29.60;18.03;;;;;;;-5.29;60.84;101492.91;1696716;83;21188;-40
2021/03/10 03:55:32;;;;;;;27.17;17.07;;;;;;;-5.28;60.84;101492.48;1737983;81;21157;-39
2021/03/10 03:58:00;;;;;;;31.17;18.83;;;;;;;-5.28;60.82;101491.19;1708858;82;21168;-39
2021/03/10 04:00:27;;;;;;;34.30;20.13;;;;;;;-5.29;60.84;101493.31;1739618;81;21643;-38
2021/03/10 04:02:55;;;;;;;28.00;18.13;;;;;;;-5.31;60.80;101498.50;1704729;81;21692;-38
2021/03/10 04:05:23;;;;;;;30.60;18.40;;;;;;;-5.31;60.66;101488.52;1727087;81;21190;-40
2021/03/10 04:07:55;;;;;;;33.33;19.90;;;;;;;-5.33;60.45;101494.11;1720457;81;21164;-40
2021/03/10 04:10:29;;;;;;;36.10;19.50;;;;;;;-5.37;60.30;101490.54;1729175;81;21120;-39
2021/03/10 04:12:57;;;;;;;33.57;20.50;;;;;;;-5.42;60.22;101497.36;1716565;82;21685;-40
2021/03/10 04:15:28;;;;;;;36.50;21.33;;;;;;;-5.46;60.24;101500.75;1737944;80;21153;-39
2021/03/10 04:17:55;;;;;;;37.50;20.97;;;;;;;-5.48;60.32;101500.70;1718622;81;21633;-39
2021/03/10 04:20:23;;;;;;;38.20;19.80;;;;;;;-5.44;60.29;101506.45;1727338;82;21148;-38
2021/03/10 04:22:51;;;;;;;38.37;22.17;;;;;;;-5.40;60.11;101503.91;1722308;81;21137;-38
2021/03/10 04:25:21;;;;;;;38.50;21.93;;;;;;;-5.41;59.87;101509.97;1712408;82;21145;-39
2021/03/10 04:27:48;;;;;;;34.43;20.07;;;;;;;-5.47;59.84;101510.28;1709073;82;21207;-40
2021/03/10 04:30:16;;;;;;;40.17;19.90;;;;;;;-5.50;59.83;101512.78;1707376;83;21216;-40
2021/03/10 04:32:44;;;;;;;38.23;21.80;;;;;;;-5.52;59.97;101514.50;1703668;82;21178;-39
2021/03/10 04:35:12;;;;;;;33.57;20.83;;;;;;;-5.51;60.03;101512.77;1707443;82;21152;-43
2021/03/10 04:37:40;;;;;;;32.70;20.67;;;;;;;-5.52;60.08;101513.20;1708368;82;21153;-42
2021/03/10 04:40:09;;;;;;;37.10;19.97;;;;;;;-5.50;60.26;101506.72;1705413;83;21189;-43
2021/03/10 04:42:38;;;;;;;41.70;22.43;;;;;;;-5.51;60.30;101508.44;1700963;82;21160;-41
2021/03/10 04:45:12;;;;;;;42.63;22.73;;;;;;;-5.50;60.27;101511.91;1705018;82;21243;-37
2021/03/10 04:47:41;;;;;;;39.17;21.77;;;;;;;-5.50;60.19;101514.52;1701244;83;21201;-42
2021/03/10 04:50:10;;;;;;;41.03;24.93;;;;;;;-5.52;60.17;101518.40;1719947;82;21593;-42
2021/03/10 04:52:39;;;;;;;41.63;25.23;;;;;;;-5.52;60.16;101514.50;1719097;81;21145;-42
2021/03/10 04:55:10;;;;;;;41.95;24.07;;;;;;;-5.53;60.15;101513.15;1703746;82;21321;-42
2021/03/10 04:57:38;;;;;;;39.03;22.43;;;;;;;-5.56;60.23;101508.75;1741576;81;21615;-41
2021/03/10 05:00:10;;;;;;;33.70;21.63;;;;;;;-5.58;60.48;101511.73;1721221;81;21182;-41
2021/03/10 05:02:38;;;;;;;40.90;25.87;;;;;;;-5.57;60.64;101517.80;1714361;81;21181;-41
2021/03/10 05:05:08;;;;;;;43.27;25.83;;;;;;;-5.56;60.90;101523.48;1692175;83;21190;-41
2021/03/10 05:07:36;;;;;;;43.90;24.60;;;;;;;-5.53;61.14;101524.84;1708553;82;21198;-40
2021/03/10 05:10:06;;;;;;;42.10;25.60;;;;;;;-5.50;61.33;101519.28;1707570;82;21229;-39
2021/03/10 05:12:34;;;;;;;45.33;23.90;;;;;;;-5.49;61.49;101525.39;1737536;81;21345;-39
2021/03/10 05:15:02;;;;;;;44.20;25.13;;;;;;;-5.46;61.66;101528.05;1732283;81;21160;-42
2021/03/10 05:17:30;;;;;;;43.13;24.43;;;;;;;-5.47;61.80;101521.08;1704238;83;21173;-39
2021/03/10 05:19:58;;;;;;;38.47;25.93;;;;;;;-5.46;61.98;101528.05;1732755;81;21137;-39
2021/03/10 05:22:26;;;;;;;45.30;27.07;;;;;;;-5.45;62.14;101528.07;1707771;81;21171;-42
2021/03/10 05:24:54;;;;;;;44.23;27.90;;;;;;;-5.42;62.36;101530.29;1733993;81;21155;-40
2021/03/10 05:27:25;;;;;;;46.77;27.13;;;;;;;-5.39;62.55;101532.95;1719627;81;21216;-42
2021/03/10 05:29:59;;;;;;;46.93;25.43;;;;;;;-5.36;62.67;101535.23;1714534;81;21636;-41
2021/03/10 05:32:27;;;;;;;45.77;27.70;;;;;;;-5.33;62.80;101535.72;1722729;81;21165;-43
2021/03/10 05:34:54;;;;;;;47.07;27.43;;;;;;;-5.32;62.96;101533.56;1722248;82;21165;-40
2021/03/10 05:37:22;;;;;;;41.73;24.57;;;;;;;-5.31;63.20;101540.11;1727422;81;21206;-41
2021/03/10 05:39:50;;;;;;;45.97;25.83;;;;;;;-5.28;63.49;101544.50;1712389;82;21222;-42
2021/03/10 05:42:18;;;;;;;42.47;24.93;;;;;;;-5.23;63.82;101545.48;1714505;82;21209;-41
2021/03/10 05:44:50;;;;;;;40.87;24.50;;;;;;;-5.15;64.37;101544.36;1709542;82;21193;-39
2021/03/10 05:47:20;;;;;;;40.33;24.27;;;;;;;-5.07;64.80;101544.09;1709207;82;21674;-50
2021/03/10 05:49:48;;;;;;;45.58;25.02;;;;;;;-4.94;65.19;101547.42;1715480;81;21150;-43
2021/03/10 05:52:17;;;;;;;40.60;23.10;;;;;;;-4.82;65.39;101546.81;1728839;81;21192;-46
2021/03/10 05:54:44;;;;;;;37.50;22.13;;;;;;;-4.72;65.55;101542.69;1738669;81;21604;-46
2021/03/10 05:57:12;;;;;;;40.67;22.53;;;;;;;-4.62;65.65;101548.10;1733572;80;21522;-45
2021/03/10 05:59:40;;;;;;;36.37;21.33;;;;;;;-4.50;65.73;101556.59;1737967;80;21153;-46
2021/03/10 06:02:08;;;;;;;35.20;19.67;;;;;;;-4.39;65.92;101551.16;1719778;81;21193;-44
2021/03/10 06:04:39;;;;;;;30.93;19.37;;;;;;;-4.27;66.08;101552.27;1730461;81;21707;-47
2021/03/10 06:07:23;;;;;;;34.13;19.30;;;;;;;-4.16;66.22;101559.45;1706670;81;21175;-46
2021/03/10 06:10:02;;;;;;;30.13;17.13;;;;;;;-4.04;66.33;101556.17;1684867;83;21148;-45
2021/03/10 06:12:43;;;;;;;29.43;16.77;;;;;;;-3.90;66.32;101559.47;1705344;81;21189;-45
2021/03/10 06:15:14;;;;;;;22.10;14.07;;;;;;;-3.78;66.27;101560.96;1724232;81;21146;-45
2021/03/10 06:17:48;;;;;;;25.90;15.00;;;;;;;-3.67;66.26;101560.73;1707884;82;21147;-43
2021/03/10 06:20:28;;;;;;;24.00;14.78;;;;;;;-3.56;66.46;101564.39;1706364;83;21133;-44
2021/03/10 06:22:56;;;;;;;27.17;14.80;;;;;;;-3.47;66.27;101564.98;1705902;83;21193;-43
2021/03/10 06:25:37;;;;;;;22.33;12.90;;;;;;;-3.40;66.26;101565.53;1718510;81;21160;-45
2021/03/10 06:28:05;;;;;;;16.90;10.63;;;;;;;-3.32;66.28;101566.95;1714339;81;21692;-41
2021/03/10 06:30:40;;;;;;;14.30;9.57;;;;;;;-3.22;66.23;101562.77;1696924;82;21176;-43
2021/03/10 06:33:08;;;;;;;13.37;7.63;;;;;;;-3.12;66.20;101562.05;1719863;82;21645;-45
2021/03/10 06:35:37;;;;;;;9.93;7.10;;;;;;;-3.02;66.02;101564.33;1709853;82;21152;-43
2021/03/10 06:38:15;;;;;;;12.60;7.53;;;;;;;-2.90;65.51;101562.80;1714821;82;21168;-46
2021/03/10 06:40:54;;;;;;;8.37;6.03;;;;;;;-2.79;65.26;101562.94;1709399;83;21665;-48
2021/03/10 06:43:41;;;;;;;9.23;5.87;;;;;;;-2.68;65.15;101567.86;1711025;82;21180;-48
2021/03/10 06:46:14;;;;;;;7.63;5.63;;;;;;;-2.57;64.67;101574.55;1715792;82;21614;-45
2021/03/10 06:49:02;;;;;;;10.07;6.77;;;;;;;-2.44;63.66;101565.99;1705582;82;21178;-41
2021/03/10 06:51:32;;;;;;;8.07;5.57;;;;;;;-2.33;63.56;101573.08;1721871;81;21608;-47
2021/03/10 06:54:00;;;;;;;8.00;4.93;;;;;;;-2.22;63.89;101563.20;1709357;82;21284;-49
2021/03/10 06:56:29;;;;;;;8.07;4.20;;;;;;;-2.11;63.21;101567.23;1704925;82;21189;-45
2021/03/10 06:59:05;;;;;;;6.67;4.50;;;;;;;-2.00;62.44;101564.29;1701484;82;21184;-42
2021/03/10 07:01:42;;;;;;;6.00;4.33;;;;;;;-1.88;61.95;101563.98;1710945;82;21306;-45
2021/03/10 07:04:12;;;;;;;7.20;4.43;;;;;;;-1.76;61.36;101562.80;1706552;82;21345;-44
2021/03/10 07:06:40;;;;;;;7.70;4.10;;;;;;;-1.64;60.97;101564.22;1715486;82;21189;-43
2021/03/10 07:09:17;;;;;;;9.27;4.73;;;;;;;-1.50;60.44;101559.52;1717635;82;21163;-43
2021/03/10 07:11:45;;;;;;;6.40;4.00;;;;;;;-1.40;59.62;101564.83;1720690;82;21637;-43
2021/03/10 07:14:14;;;;;;;7.03;3.57;;;;;;;-1.27;58.96;101563.62;1707147;82;21334;-48
2021/03/10 07:16:42;;;;;;;6.60;3.87;;;;;;;-1.18;57.99;101569.80;1711624;82;21410;-44
2021/03/10 07:19:10;;;;;;;4.50;2.97;;;;;;;-1.09;57.54;101567.22;1680741;82;21342;-45
2021/03/10 07:21:51;;;;;;;5.83;3.27;;;;;;;-1.00;57.12;101568.17;1714964;82;21580;-45
2021/03/10 07:24:36;;;;;;;4.97;2.97;;;;;;;-0.92;56.59;101562.09;1720004;82;21495;-45
2021/03/10 07:27:05;;;;;;;4.93;2.63;;;;;;;-0.81;55.81;101560.84;1715586;82;21205;-41
2021/03/10 07:29:36;;;;;;;3.60;2.20;;;;;;;-0.70;54.58;101557.86;1711412;82;21701;-41
2021/03/10 07:32:06;;;;;;;3.60;2.27;;;;;;;-0.61;53.86;101555.70;1714972;82;21184;-41
2021/03/10 07:34:34;;;;;;;4.42;2.58;;;;;;;-0.51;53.67;101560.11;1708726;82;21194;-41
2021/03/10 07:37:16;;;;;;;4.23;2.50;;;;;;;-0.44;52.06;101559.27;1712181;82;21145;-43
2021/03/10 07:39:44;;;;;;;3.60;1.60;;;;;;;-0.35;51.65;101557.55;1715656;82;21485;-47
2021/03/10 07:42:14;;;;;;;2.93;1.57;;;;;;;-0.25;50.95;101554.11;1712848;82;21204;-46
2021/03/10 07:45:11;;;;;;;3.87;2.17;;;;;;;-0.12;49.27;101553.27;1794549;78;23896;-43
2021/03/10 07:47:52;;;;;;;3.43;2.03;;;;;;;-0.10;48.27;101547.59;1727453;81;21157;-42
2021/03/10 07:50:20;;;;;;;3.27;2.00;;;;;;;-0.04;47.92;101548.04;1650539;85;21220;-45
2021/03/10 07:52:52;;;;;;;4.57;1.90;;;;;;;0.03;48.05;101546.31;1646189;85;21222;-45
2021/03/10 07:55:20;;;;;;;2.83;1.63;;;;;;;0.08;48.24;101547.20;1653625;85;21224;-45
2021/03/10 07:57:55;;;;;;;2.33;1.57;;;;;;;0.14;46.25;101541.94;1639120;85;21212;-44
2021/03/10 08:00:36;;;;;;;2.43;1.47;;;;;;;0.20;46.88;101545.46;1649033;85;21219;-42
2021/03/10 08:03:04;;;;;;;2.52;1.37;;;;;;;0.29;46.40;101545.02;1655352;85;21182;-45
2021/03/10 08:05:34;;;;;;;2.07;1.40;;;;;;;0.35;45.22;101541.97;1650936;85;21208;-42
2021/03/10 08:08:14;;;;;;;2.97;1.60;;;;;;;0.40;45.23;101545.47;1646357;85;21221;-42
2021/03/10 08:10:47;;;;;;;3.33;1.67;;;;;;;0.50;44.74;101533.64;1804631;77;22969;-42
2021/03/10 08:13:16;;;;;;;3.03;1.30;;;;;;;0.52;44.80;101527.52;1776331;78;21153;-43
2021/03/10 08:15:45;;;;;;;3.37;1.65;;;;;;;0.62;44.60;101534.95;1739593;80;21145;-43
2021/03/10 08:18:13;;;;;;;4.97;1.67;;;;;;;0.71;44.75;101534.95;1714592;81;21142;-46
2021/03/10 08:20:41;;;;;;;5.07;2.20;;;;;;;0.81;44.13;101538.00;1723374;81;21172;-45
2021/03/10 08:23:09;;;;;;;4.57;2.70;;;;;;;0.90;44.33;101530.97;1747016;80;21154;-44
2021/03/10 08:25:36;;;;;;;4.37;2.40;;;;;;;0.97;44.52;101528.33;1741391;80;21173;-44
2021/03/10 08:28:12;;;;;;;4.80;2.20;;;;;;;1.01;45.00;101528.77;1741660;80;21149;-43
2021/03/10 08:30:41;;;;;;;2.87;1.27;;;;;;;1.07;43.80;101530.05;1725723;81;21163;-43
2021/03/10 08:33:10;;;;;;;4.27;1.60;;;;;;;1.12;43.85;101519.98;1721010;81;21933;-44
2021/03/10 08:35:47;;;;;;;4.95;2.42;;;;;;;1.18;43.44;101524.75;1721328;81;21631;-44
2021/03/10 08:38:14;;;;;;;3.85;2.40;;;;;;;1.26;43.35;101518.16;1687251;83;21162;-44
2021/03/10 08:40:42;;;;;;;5.70;2.47;;;;;;;1.30;43.09;101520.77;1705718;83;21157;-46
2021/03/10 08:43:19;;;;;;;3.65;2.35;;;;;;;1.33;42.81;101521.64;1704572;83;21206;-46
2021/03/10 08:45:47;;;;;;;4.80;2.95;;;;;;;1.35;43.62;101525.15;1705812;83;21952;-47
2021/03/10 08:48:15;;;;;;;6.35;3.02;;;;;;;1.41;44.34;101522.48;1705202;83;21582;-47
2021/03/10 08:50:46;;;;;;;4.15;2.80;;;;;;;1.48;43.89;101525.52;1714464;82;21166;-47
2021/03/10 08:53:15;;;;;;;5.30;2.98;;;;;;;1.53;43.06;101521.11;1705739;83;21158;-47
2021/03/10 08:55:45;;;;;;;7.85;2.55;;;;;;;1.60;43.08;101522.84;1705564;83;21586;-46
2021/03/10 08:58:15;;;;;;;3.60;2.65;;;;;;;1.66;42.17;101521.52;1734514;81;21162;-45
2021/03/10 09:00:44;;;;;;;9.00;3.45;;;;;;;1.67;42.09;101520.61;1731676;81;21149;-45
2021/03/10 09:03:17;;;;;;;4.35;1.82;;;;;;;1.68;42.25;101516.22;1676803;83;21167;-45
2021/03/10 09:05:48;;;;;;;5.50;2.72;;;;;;;1.69;41.16;101518.86;1710174;83;21198;-43
2021/03/10 09:08:20;;;;;;;5.03;2.60;;;;;;;1.73;41.39;101515.30;1726723;82;21264;-43
2021/03/10 09:10:50;;;;;;;4.85;2.42;;;;;;;1.79;41.51;101516.16;1693651;82;21142;-49
2021/03/10 09:13:32;;;;;;;5.35;2.47;;;;;;;1.90;40.94;101509.09;1807946;77;22736;-49
2021/03/10 09:16:10;;;;;;;4.83;2.22;;;;;;;1.91;40.46;101507.73;1804843;78;21137;-49
2021/03/10 09:18:45;;;;;;;4.85;2.70;;;;;;;1.99;40.17;101514.30;1809520;78;21125;-49
2021/03/10 09:21:12;;;;;;;5.67;2.67;;;;;;;2.06;40.20;101508.08;1756424;78;21533;-49
2021/03/10 09:23:42;;;;;;;6.08;2.62;;;;;;;2.11;40.30;101508.05;1782569;78;21125;-52
2021/03/10 09:26:12;;;;;;;8.20;3.85;;;;;;;2.15;40.35;101505.39;1811261;78;21469;-42
2021/03/10 09:28:58;;;;;;;5.37;2.22;;;;;;;2.19;39.93;101502.28;1817285;78;21125;-50
2021/03/10 09:31:34;;;;;;;7.30;2.65;;;;;;;2.20;39.66;101496.16;1810830;78;21137;-48
2021/03/10 09:34:05;;;;;;;3.87;2.35;;;;;;;2.22;40.17;101498.33;1810274;78;21545;-50
2021/03/10 09:37:12;;;;;;;5.80;2.20;;;;;;;2.33;39.48;101496.92;1794044;78;22803;-49
2021/03/10 09:39:47;;;;;;;6.92;2.25;;;;;;;2.33;38.81;101500.42;1766778;79;21188;-46
2021/03/10 09:42:18;;;;;;;3.30;2.20;;;;;;;2.33;38.76;101493.84;1728625;80;21145;-42
2021/03/10 09:44:52;;;;;;;4.25;2.70;;;;;;;2.35;39.46;101497.34;1778286;80;21177;-46
2021/03/10 09:47:25;;;;;;;5.45;2.45;;;;;;;2.39;38.95;101496.85;1762171;79;21126;-47
2021/03/10 09:49:58;;;;;;;4.35;2.22;;;;;;;2.42;38.70;101503.85;1760958;79;21338;-43
2021/03/10 09:52:37;;;;;;;5.53;2.05;;;;;;;2.46;38.63;101500.32;1766268;80;21880;-44
2021/03/10 09:55:09;;;;;;;3.90;2.20;;;;;;;2.47;38.52;101497.69;1766029;79;21597;-44
2021/03/10 09:57:41;;;;;;;4.92;2.55;;;;;;;2.51;38.51;101498.52;1767526;79;21156;-46
2021/03/10 10:00:21;;;;;;;2.30;1.70;;;;;;;2.55;38.50;101489.27;1770055;79;21228;-43
2021/03/10 10:02:51;;;;;;;3.75;2.33;;;;;;;2.57;36.64;101490.55;1711906;81;21137;-44
2021/03/10 10:05:24;;;;;;;5.97;2.47;;;;;;;2.56;37.53;101494.08;1719355;82;21127;-48
2021/03/10 10:07:57;;;;;;;5.55;2.52;;;;;;;2.57;37.53;101493.17;1724984;81;21172;-46
2021/03/10 10:10:26;;;;;;;7.03;2.87;;;;;;;2.59;37.11;101487.01;1711725;82;21160;-50
2021/03/10 10:12:55;;;;;;;4.08;2.60;;;;;;;2.60;37.43;101488.77;1713372;82;21581;-46
2021/03/10 10:15:26;;;;;;;4.53;2.92;;;;;;;2.67;37.16;101489.59;1714493;82;22207;-48
2021/03/10 10:17:56;;;;;;;6.37;2.63;;;;;;;2.72;37.03;101489.11;1705157;82;21200;-48
2021/03/10 10:20:29;;;;;;;3.20;2.25;;;;;;;2.76;36.79;101483.34;1716238;81;21545;-43
2021/03/10 10:22:59;;;;;;;6.72;2.75;;;;;;;2.77;36.41;101484.66;1708966;81;21178;-45
2021/03/10 10:25:32;;;;;;;4.42;2.30;;;;;;;2.80;36.60;101479.36;1703682;82;21343;-47
2021/03/10 10:28:00;;;;;;;3.98;2.37;;;;;;;2.81;36.41;101483.72;1690899;83;21241;-52
2021/03/10 10:30:30;;;;;;;5.53;2.72;;;;;;;2.78;35.86;101483.76;1674378;82;21318;-52
2021/03/10 10:32:58;;;;;;;7.28;3.08;;;;;;;2.75;36.15;101482.94;1716333;82;21461;-52
2021/03/10 10:35:27;;;;;;;9.48;2.90;;;;;;;2.76;36.88;101475.00;1679710;82;21225;-52
2021/03/10 10:37:54;;;;;;;7.50;3.15;;;;;;;2.80;36.94;101474.53;1736760;81;21150;-52
2021/03/10 10:40:22;;;;;;;13.30;3.50;;;;;;;2.87;36.46;101470.05;1717553;82;21194;-47
2021/03/10 10:42:56;;;;;;;7.80;2.90;;;;;;;2.91;37.28;101466.50;1707080;81;21138;-44
2021/03/10 10:45:24;;;;;;;4.67;2.65;;;;;;;2.96;37.23;101465.56;1697541;83;21204;-47
2021/03/10 10:47:54;;;;;;;5.35;2.62;;;;;;;3.00;37.34;101463.77;1708718;83;21169;-47
2021/03/10 10:50:36;;;;;;;8.05;3.10;;;;;;;3.06;37.22;101466.33;1738753;81;21128;-48
2021/03/10 10:53:10;;;;;;;4.17;2.67;;;;;;;3.11;36.67;101461.88;1707766;81;21236;-45
2021/03/10 10:55:56;;;;;;;7.50;2.65;;;;;;;3.15;36.71;101457.00;1729093;81;21922;-47
2021/03/10 10:58:24;;;;;;;5.33;2.83;;;;;;;3.17;36.08;101457.83;1702311;83;21181;-46
2021/03/10 11:00:53;;;;;;;4.42;3.00;;;;;;;3.18;36.97;101464.86;1735407;81;21690;-47
2021/03/10 11:03:25;;;;;;;8.43;3.47;;;;;;;3.20;36.13;101455.17;1720335;81;21156;-46
2021/03/10 11:05:54;;;;;;;6.25;2.85;;;;;;;3.26;35.77;101462.12;1700156;83;21210;-47
2021/03/10 11:08:25;;;;;;;7.90;2.72;;;;;;;3.28;36.32;101462.12;1737609;81;21641;-47
2021/03/10 11:10:54;;;;;;;8.33;2.90;;;;;;;3.29;35.98;101459.90;1706960;82;21182;-48
2021/03/10 11:13:24;;;;;;;5.55;2.98;;;;;;;3.27;35.53;101465.62;1710814;82;21158;-47
2021/03/10 11:15:54;;;;;;;7.62;2.67;;;;;;;3.23;35.56;101456.45;1732876;81;21545;-48
2021/03/10 11:18:53;;;;;;;4.50;2.83;;;;;;;3.29;35.25;101448.03;1793762;78;23123;-49
2021/03/10 11:21:21;;;;;;;6.05;2.72;;;;;;;3.27;35.21;101448.49;1770270;79;21109;-50
2021/03/10 11:23:50;;;;;;;4.35;2.55;;;;;;;3.28;36.08;101443.22;1737849;81;21619;-45
2021/03/10 11:26:19;;;;;;;4.50;2.42;;;;;;;3.32;35.42;101444.03;1774093;80;21193;-45
2021/03/10 11:28:47;;;;;;;4.60;2.67;;;;;;;3.35;35.19;101446.63;1772810;80;21189;-47
2021/03/10 11:31:15;;;;;;;7.58;2.72;;;;;;;3.35;35.29;101441.34;1777359;79;21191;-47
2021/03/10 11:33:44;;;;;;;4.72;2.60;;;;;;;3.37;35.51;101439.11;1720396;81;21165;-44
2021/03/10 11:36:12;;;;;;;4.72;2.25;;;;;;;3.40;35.22;101436.46;1706085;83;21154;-44
2021/03/10 11:38:44;;;;;;;3.58;1.52;;;;;;;3.45;34.76;101441.64;1700204;83;21207;-48